Time;durP1;ratioP1;P1;durP2;ratioP2;P2;SDS_P1;SDS_P2;PMS_P1;PMS_P2;Temp;Humidity;BMP_temperature;BMP_pressure;BME280_temperature;BME280_humidity;BME280_pressure;Samples;Min_cycle;Max_cycle;Signal;HPM_P1;HPM_P2
2021/07/29 00:00:39;;;;;;;6.65;3.05;;;;;;;16.78;100.00;100266.97;5033323;28;20056;-66
2021/07/29 00:03:24;;;;;;;5.03;3.42;;;;;;;16.80;100.00;100267.63;5033274;28;20044;-66
2021/07/29 00:06:13;;;;;;;5.50;3.15;;;;;;;16.79;100.00;100260.56;5018073;28;20052;-66
2021/07/29 00:08:57;;;;;;;7.93;3.50;;;;;;;16.81;100.00;100263.94;5018315;28;20036;-65
2021/07/29 00:11:40;;;;;;;4.32;3.05;;;;;;;16.86;100.00;100266.88;5032152;28;20390;-67
2021/07/29 00:14:24;;;;;;;4.63;3.50;;;;;;;16.91;100.00;100261.78;5033002;28;20521;-66
2021/07/29 00:17:16;;;;;;;7.10;3.45;;;;;;;16.97;100.00;100258.34;5032854;28;20052;-67
2021/07/29 00:20:00;;;;;;;6.90;3.85;;;;;;;16.97;100.00;100255.66;5033210;28;20549;-66
2021/07/29 00:22:49;;;;;;;6.85;3.42;;;;;;;16.92;100.00;100258.09;5032761;28;20053;-67
2021/07/29 00:25:34;;;;;;;8.32;4.05;;;;;;;16.87;100.00;100257.78;5033133;28;20052;-67
2021/07/29 00:28:17;;;;;;;4.15;3.20;;;;;;;16.84;100.00;100260.00;5032843;28;20075;-67
2021/07/29 00:31:01;;;;;;;3.80;3.30;;;;;;;16.83;100.00;100263.72;5033024;28;20545;-66
2021/07/29 00:33:45;;;;;;;4.85;3.30;;;;;;;16.81;100.00;100266.63;5036705;28;20055;-66
2021/07/29 00:36:29;;;;;;;10.32;3.63;;;;;;;16.78;100.00;100268.84;5035913;28;20126;-67
2021/07/29 00:39:13;;;;;;;6.60;3.63;;;;;;;16.79;100.00;100265.13;5021945;28;20576;-67
2021/07/29 00:41:57;;;;;;;5.85;3.80;;;;;;;16.89;100.00;100252.22;5036789;28;20064;-64
2021/07/29 00:44:41;;;;;;;5.60;3.28;;;;;;;16.86;100.00;100248.03;5036507;28;20043;-66
2021/07/29 00:47:25;;;;;;;5.18;4.07;;;;;;;16.88;100.00;100248.69;5035720;28;20095;-66
2021/07/29 00:50:10;;;;;;;9.90;3.47;;;;;;;16.87;100.00;100255.09;5021489;28;20516;-66
2021/07/29 00:52:54;;;;;;;5.88;3.65;;;;;;;16.78;100.00;100253.50;5035202;28;20057;-67
2021/07/29 00:55:38;;;;;;;5.65;3.53;;;;;;;16.90;100.00;100252.03;5021295;28;20056;-67
2021/07/29 00:58:23;;;;;;;5.55;3.30;;;;;;;16.89;100.00;100249.53;5035551;28;20410;-66
2021/07/29 01:01:07;;;;;;;6.47;3.25;;;;;;;16.94;100.00;100239.88;5035174;28;20052;-67
2021/07/29 01:03:51;;;;;;;6.82;3.47;;;;;;;16.95;100.00;100236.16;5036116;28;20143;-66
2021/07/29 01:06:35;;;;;;;5.35;3.58;;;;;;;17.00;100.00;100243.69;5021405;28;20143;-66
2021/07/29 01:09:19;;;;;;;5.00;3.60;;;;;;;17.03;100.00;100233.38;5036360;28;20176;-66
2021/07/29 01:12:03;;;;;;;5.50;3.10;;;;;;;17.08;100.00;100240.91;5034906;28;20068;-66
2021/07/29 01:14:47;;;;;;;7.05;3.58;;;;;;;17.06;100.00;100233.00;5035306;28;20509;-67
2021/07/29 01:17:33;;;;;;;3.92;3.50;;;;;;;17.09;100.00;100235.31;5035980;28;20096;-66
2021/07/29 01:20:21;;;;;;;4.38;3.67;;;;;;;17.07;100.00;100239.22;5035421;28;20091;-66
2021/07/29 01:23:06;;;;;;;6.13;3.40;;;;;;;17.08;100.00;100236.34;5020885;28;20103;-67
2021/07/29 01:25:49;;;;;;;5.93;3.70;;;;;;;17.12;100.00;100234.97;5034857;28;20128;-67
2021/07/29 01:28:33;;;;;;;4.35;3.45;;;;;;;17.13;100.00;100233.09;5034973;28;20514;-67
2021/07/29 01:31:17;;;;;;;6.97;3.53;;;;;;;17.06;100.00;100226.75;5035824;28;20095;-66
2021/07/29 01:34:01;;;;;;;5.30;3.42;;;;;;;16.95;100.00;100230.78;5035579;28;20446;-66
2021/07/29 01:36:45;;;;;;;7.82;3.67;;;;;;;16.86;100.00;100226.50;5034793;28;20048;-66
2021/07/29 01:39:30;;;;;;;6.50;3.40;;;;;;;16.80;100.00;100223.72;5034691;28;20049;-67
2021/07/29 01:42:14;;;;;;;4.63;3.47;;;;;;;16.75;100.00;100228.81;5035632;28;20126;-66
2021/07/29 01:44:57;;;;;;;6.85;3.92;;;;;;;16.72;100.00;100231.88;5033918;28;20135;-66
2021/07/29 01:47:41;;;;;;;10.80;3.88;;;;;;;16.71;100.00;100222.13;5035363;28;20049;-66
2021/07/29 01:50:25;;;;;;;4.43;3.55;;;;;;;16.65;100.00;100231.78;5034579;28;20106;-66
2021/07/29 01:53:10;;;;;;;5.63;3.80;;;;;;;16.63;100.00;100220.38;5035425;28;20048;-65
2021/07/29 01:55:53;;;;;;;7.05;3.72;;;;;;;16.66;100.00;100219.13;5034133;28;20056;-66
2021/07/29 01:58:38;;;;;;;6.90;3.45;;;;;;;16.64;100.00;100222.03;5035289;28;20535;-66
2021/07/29 02:01:23;;;;;;;5.63;3.63;;;;;;;16.61;100.00;100219.72;5019969;28;20057;-66
2021/07/29 02:04:07;;;;;;;8.02;3.65;;;;;;;16.63;100.00;100217.66;5035275;28;20445;-66
2021/07/29 02:06:51;;;;;;;6.88;3.72;;;;;;;16.67;100.00;100218.97;5035125;28;20543;-66
2021/07/29 02:09:35;;;;;;;7.03;3.60;;;;;;;16.78;100.00;100218.50;5034885;28;20098;-66
2021/07/29 02:12:19;;;;;;;3.67;3.03;;;;;;;16.83;100.00;100221.50;5019970;28;20080;-66
2021/07/29 02:15:03;;;;;;;6.20;3.17;;;;;;;16.84;100.00;100228.53;5035126;28;20052;-66
2021/07/29 02:17:47;;;;;;;5.05;3.30;;;;;;;16.89;100.00;100220.72;5033648;28;20056;-66
2021/07/29 02:20:31;;;;;;;4.63;3.47;;;;;;;16.90;100.00;100214.31;5033751;28;20064;-66
2021/07/29 02:23:15;;;;;;;5.72;3.45;;;;;;;16.99;100.00;100221.28;5034646;28;20103;-66
2021/07/29 02:25:59;;;;;;;4.85;3.22;;;;;;;17.02;100.00;100218.25;5033925;28;20052;-65
2021/07/29 02:28:43;;;;;;;7.10;3.65;;;;;;;17.06;100.00;100213.28;5033825;28;20044;-67
2021/07/29 02:31:27;;;;;;;9.55;3.30;;;;;;;17.07;100.00;100218.50;5034415;28;20052;-66
2021/07/29 02:34:11;;;;;;;4.47;3.50;;;;;;;17.07;100.00;100213.13;5019796;28;20091;-66
2021/07/29 02:36:58;;;;;;;4.55;3.58;;;;;;;17.06;100.00;100211.47;5033596;28;20052;-66
2021/07/29 02:39:42;;;;;;;8.32;3.80;;;;;;;17.06;100.00;100216.84;5033645;28;20057;-66
2021/07/29 02:42:27;;;;;;;8.40;3.53;;;;;;;17.07;100.00;100218.50;5019228;28;20099;-66
2021/07/29 02:45:11;;;;;;;8.48;3.47;;;;;;;17.03;100.00;100221.75;5019432;28;20052;-66
2021/07/29 02:47:54;;;;;;;4.28;3.58;;;;;;;17.02;100.00;100226.34;5034447;28;20103;-66
2021/07/29 02:50:41;;;;;;;4.85;3.42;;;;;;;17.05;100.00;100217.88;5033657;28;20056;-66
2021/07/29 02:53:29;;;;;;;9.60;3.78;;;;;;;17.07;100.00;100223.91;5042355;22;20086;-65
2021/07/29 02:56:13;;;;;;;7.72;3.47;;;;;;;17.01;100.00;100230.00;5013487;28;20084;-65
2021/07/29 02:58:57;;;;;;;4.82;3.17;;;;;;;17.04;100.00;100223.44;4999522;28;20041;-65
2021/07/29 03:01:41;;;;;;;4.68;3.42;;;;;;;17.06;100.00;100234.84;4999925;28;20107;-65
2021/07/29 03:04:25;;;;;;;5.50;3.38;;;;;;;17.09;100.00;100240.69;5033159;28;20048;-65
2021/07/29 03:07:08;;;;;;;3.40;3.08;;;;;;;17.07;100.00;100229.28;5018880;28;20424;-65
2021/07/29 03:09:53;;;;;;;4.97;3.25;;;;;;;17.06;100.00;100238.38;5019363;28;20087;-65
2021/07/29 03:12:37;;;;;;;3.60;3.10;;;;;;;17.05;100.00;100242.09;5032664;28;20133;-65
2021/07/29 03:15:21;;;;;;;5.85;3.53;;;;;;;17.09;100.00;100240.69;5018712;28;20125;-65
2021/07/29 03:18:05;;;;;;;4.90;2.92;;;;;;;17.10;100.00;100239.69;5018915;28;20072;-65
2021/07/29 03:20:49;;;;;;;6.72;3.13;;;;;;;17.11;100.00;100246.72;5033095;28;20048;-64
2021/07/29 03:23:33;;;;;;;6.03;3.22;;;;;;;17.14;100.00;100243.69;5032471;28;20094;-65
2021/07/29 03:26:17;;;;;;;4.10;3.40;;;;;;;17.09;100.00;100253.34;5032540;28;20084;-65
2021/07/29 03:29:01;;;;;;;4.85;3.03;;;;;;;17.12;100.00;100248.44;5018781;28;20095;-65
2021/07/29 03:31:45;;;;;;;4.95;3.53;;;;;;;17.11;100.00;100252.13;5018933;28;20059;-65
2021/07/29 03:34:29;;;;;;;5.55;3.78;;;;;;;17.15;100.00;100263.38;5032392;28;20135;-65
2021/07/29 03:37:13;;;;;;;9.68;3.17;;;;;;;17.16;100.00;100260.50;5018309;28;20044;-65
2021/07/29 03:40:03;;;;;;;6.32;3.47;;;;;;;17.17;100.00;100258.63;5032594;28;20102;-65
2021/07/29 03:42:48;;;;;;;7.95;3.25;;;;;;;17.15;100.00;100268.75;5019558;28;20052;-65
2021/07/29 03:45:33;;;;;;;5.22;3.58;;;;;;;17.20;100.00;100256.41;5032513;28;20044;-65
2021/07/29 03:48:18;;;;;;;4.93;3.53;;;;;;;17.20;100.00;100261.78;5018504;28;20079;-65
2021/07/29 03:51:02;;;;;;;6.43;3.80;;;;;;;17.21;100.00;100262.63;5018735;28;20096;-65
2021/07/29 03:53:46;;;;;;;4.20;3.05;;;;;;;17.20;100.00;100256.41;5018380;28;20048;-65
2021/07/29 03:56:30;;;;;;;7.75;3.88;;;;;;;17.24;100.00;100257.72;5033107;28;20124;-65
2021/07/29 03:59:14;;;;;;;3.58;3.22;;;;;;;17.26;100.00;100261.03;5032221;28;20040;-65
2021/07/29 04:01:58;;;;;;;4.07;3.35;;;;;;;17.30;100.00;100259.63;5033008;28;20044;-65
2021/07/29 04:04:42;;;;;;;4.95;3.17;;;;;;;17.25;100.00;100248.59;5033307;28;20095;-65
2021/07/29 04:07:26;;;;;;;8.27;3.75;;;;;;;17.28;100.00;100252.78;5035543;28;20126;-65
2021/07/29 04:10:10;;;;;;;7.68;3.85;;;;;;;17.28;100.00;100264.38;5036384;28;20083;-65
2021/07/29 04:12:54;;;;;;;8.75;3.75;;;;;;;17.36;100.00;100267.03;5036303;28;20044;-65
2021/07/29 04:15:38;;;;;;;5.72;3.67;;;;;;;17.35;100.00;100269.84;5037330;28;20493;-65
2021/07/29 04:18:22;;;;;;;6.68;3.30;;;;;;;17.30;100.00;100270.41;5035900;28;20068;-65
2021/07/29 04:21:06;;;;;;;3.55;3.05;;;;;;;17.32;100.00;100271.06;5037178;28;20502;-65
2021/07/29 04:23:49;;;;;;;7.47;3.58;;;;;;;17.34;100.00;100278.97;5036837;28;20560;-65
2021/07/29 04:26:33;;;;;;;5.07;3.60;;;;;;;17.33;100.00;100280.84;5037091;28;20517;-65
2021/07/29 04:29:17;;;;;;;5.80;3.60;;;;;;;17.33;100.00;100280.84;5036785;28;20051;-66
2021/07/29 04:32:04;;;;;;;7.68;3.78;;;;;;;17.28;100.00;100264.38;5035947;28;20095;-66
2021/07/29 04:34:48;;;;;;;7.38;3.47;;;;;;;17.34;100.00;100262.81;5035802;28;20422;-65
2021/07/29 04:37:33;;;;;;;4.63;3.53;;;;;;;17.42;100.00;100271.63;5036178;28;20525;-65
2021/07/29 04:40:18;;;;;;;4.22;3.30;;;;;;;17.41;100.00;100286.13;5022336;28;20418;-64
2021/07/29 04:43:02;;;;;;;5.22;3.67;;;;;;;17.46;100.00;100286.44;5035637;28;20418;-65
2021/07/29 04:45:46;;;;;;;4.45;3.17;;;;;;;17.45;100.00;100282.06;5036778;28;20418;-65
2021/07/29 04:48:31;;;;;;;3.70;3.40;;;;;;;17.53;100.00;100291.91;5036652;28;20129;-65
2021/07/29 04:51:15;;;;;;;5.80;3.50;;;;;;;17.58;100.00;100298.41;5036396;28;20148;-65
2021/07/29 04:53:59;;;;;;;4.30;3.40;;;;;;;17.63;100.00;100287.06;5035195;28;20128;-66
2021/07/29 04:56:43;;;;;;;9.80;3.30;;;;;;;17.62;100.00;100299.69;5035601;28;20083;-65
2021/07/29 04:59:27;;;;;;;6.00;3.30;;;;;;;17.72;100.00;100289.44;5035771;28;20148;-65
2021/07/29 05:02:11;;;;;;;7.00;3.03;;;;;;;17.76;100.00;100296.16;5036369;28;20565;-65
2021/07/29 05:04:55;;;;;;;3.97;3.30;;;;;;;17.81;99.09;100293.69;5036141;28;20132;-65
2021/07/29 05:07:39;;;;;;;5.43;3.03;;;;;;;17.86;97.93;100285.88;5035056;28;20103;-65
2021/07/29 05:10:23;;;;;;;6.35;3.67;;;;;;;17.92;97.49;100300.47;5021353;28;20144;-64
2021/07/29 05:13:07;;;;;;;9.02;3.88;;;;;;;17.94;96.94;100303.81;5035247;28;20111;-65
2021/07/29 05:15:51;;;;;;;;;;;;;;;17.94;98.47;100301.13;5035402;28;20427;-65
2021/07/29 05:18:35;;;;;;;4.53;3.50;;;;;;;17.95;97.70;100300.94;5019767;28;20320;-65
2021/07/29 05:21:20;;;;;;;4.60;3.15;;;;;;;18.02;95.83;100299.13;5035055;28;20128;-65
2021/07/29 05:24:05;;;;;;;5.05;3.42;;;;;;;18.10;95.07;100306.28;5020819;28;20572;-65
2021/07/29 05:26:49;;;;;;;6.32;3.42;;;;;;;18.15;93.35;100291.19;5021044;28;20422;-64
2021/07/29 05:29:32;;;;;;;6.10;3.50;;;;;;;18.26;93.24;100295.22;5020898;28;20044;-65
2021/07/29 05:32:16;;;;;;;3.70;3.28;;;;;;;18.30;91.33;100304.66;5020832;28;20131;-65
2021/07/29 05:35:00;;;;;;;3.65;2.97;;;;;;;18.35;91.51;100297.66;5020586;28;20048;-65
2021/07/29 05:37:44;;;;;;;7.35;3.38;;;;;;;18.44;87.41;100297.31;5020784;28;20079;-65
2021/07/29 05:40:28;;;;;;;5.50;2.65;;;;;;;18.56;87.30;100298.47;5020772;28;20043;-65
2021/07/29 05:43:12;;;;;;;8.85;3.42;;;;;;;18.61;86.25;100292.47;5020767;28;20048;-65
2021/07/29 05:45:56;;;;;;;6.47;2.97;;;;;;;18.66;85.65;100301.66;5020673;28;20099;-66
2021/07/29 05:48:40;;;;;;;5.35;2.67;;;;;;;18.69;84.40;100300.44;5034303;28;20044;-65
2021/07/29 05:51:24;;;;;;;5.40;3.20;;;;;;;18.77;82.63;100297.59;5020288;28;20056;-65
2021/07/29 05:54:08;;;;;;;6.47;3.38;;;;;;;18.79;82.79;100300.94;5020788;28;20099;-65
2021/07/29 05:56:52;;;;;;;6.40;2.90;;;;;;;18.79;83.85;100303.66;5020217;28;20050;-65
2021/07/29 05:59:36;;;;;;;4.07;3.00;;;;;;;18.90;83.73;100308.50;5034414;28;20566;-65
2021/07/29 06:02:20;;;;;;;3.70;2.83;;;;;;;18.87;82.11;100317.00;5020249;28;20051;-65
2021/07/29 06:05:04;;;;;;;5.10;3.15;;;;;;;18.99;82.24;100318.16;5020484;28;20040;-64
2021/07/29 06:07:48;;;;;;;5.60;2.95;;;;;;;18.96;80.80;100318.50;5034032;28;20047;-65
2021/07/29 06:10:33;;;;;;;3.80;2.92;;;;;;;19.08;80.82;100328.59;5020201;28;20134;-65
2021/07/29 06:13:17;;;;;;;4.57;2.70;;;;;;;19.04;79.38;100321.06;5019889;28;20048;-65
2021/07/29 06:16:03;;;;;;;3.58;3.00;;;;;;;19.12;79.54;100329.88;5020087;28;20048;-65
2021/07/29 06:21:50;;;;;;;3.72;3.00;;;;;;;19.17;80.13;100332.81;5033814;28;20090;-65
2021/07/29 06:24:34;;;;;;;8.80;2.95;;;;;;;19.13;79.60;100336.09;5020062;28;20410;-65
2021/07/29 06:27:20;;;;;;;4.95;2.72;;;;;;;19.22;79.76;100332.25;5020131;28;20457;-65
2021/07/29 06:30:07;;;;;;;5.25;3.20;;;;;;;19.27;78.73;100329.81;5019713;28;20056;-65
2021/07/29 06:32:51;;;;;;;4.53;2.63;;;;;;;19.37;77.11;100333.00;5033496;28;20520;-66
2021/07/29 06:35:35;;;;;;;9.88;3.00;;;;;;;19.36;75.63;100331.28;5033458;28;20090;-64
2021/07/29 06:38:19;;;;;;;5.32;2.63;;;;;;;19.50;77.01;100338.47;5019465;28;20052;-65
2021/07/29 06:41:06;;;;;;;5.32;2.95;;;;;;;19.43;76.24;100343.00;5033611;28;20076;-65
2021/07/29 06:43:50;;;;;;;4.97;2.72;;;;;;;19.48;76.47;100345.94;5034391;28;20103;-65
2021/07/29 06:46:38;;;;;;;3.47;2.25;;;;;;;19.64;73.54;100349.16;5019503;28;20056;-65
2021/07/29 06:49:28;;;;;;;4.05;2.67;;;;;;;19.79;72.32;100365.25;5019540;28;20048;-65
2021/07/29 06:52:12;;;;;;;4.65;2.75;;;;;;;19.79;71.44;100366.06;5032978;28;20084;-64
2021/07/29 06:54:56;;;;;;;6.85;2.28;;;;;;;19.83;71.40;100355.69;5019377;28;20099;-65
2021/07/29 06:57:40;;;;;;;9.43;2.55;;;;;;;19.86;70.75;100366.09;5019411;28;20049;-65
2021/07/29 07:00:24;;;;;;;4.03;2.30;;;;;;;19.92;70.99;100365.31;5019400;28;20048;-65
2021/07/29 07:03:08;;;;;;;;;;;;;;;19.92;69.76;100359.91;5019639;28;20114;-65
2021/07/29 07:05:52;;;;;;;4.47;2.20;;;;;;;19.97;70.05;100362.81;5019145;28;19919;-65
2021/07/29 07:08:36;;;;;;;7.78;2.80;;;;;;;20.00;69.51;100373.25;5032819;28;20041;-65
2021/07/29 07:11:20;;;;;;;4.88;3.33;;;;;;;20.09;69.53;100372.09;5018686;28;20052;-65
2021/07/29 07:14:06;;;;;;;3.95;2.40;;;;;;;20.02;68.17;100382.00;5019389;28;20441;-65
2021/07/29 07:16:50;;;;;;;3.67;2.60;;;;;;;20.03;68.33;100370.13;5032910;28;20103;-65
2021/07/29 07:19:35;;;;;;;3.35;2.35;;;;;;;19.92;69.30;100382.34;5018929;28;20045;-65
2021/07/29 07:22:18;;;;;;;5.40;2.60;;;;;;;20.00;68.58;100373.25;5018794;28;20088;-65
2021/07/29 07:25:03;;;;;;;6.30;2.25;;;;;;;20.11;69.11;100370.00;5018869;28;20167;-65
2021/07/29 07:27:47;;;;;;;3.45;2.50;;;;;;;20.11;68.00;100364.59;5018454;28;20048;-65
2021/07/29 07:30:34;;;;;;;3.40;2.35;;;;;;;20.24;67.67;100364.63;5018731;28;20053;-65
2021/07/29 07:33:18;;;;;;;3.83;2.40;;;;;;;20.37;67.44;100368.22;5019092;28;20092;-65
2021/07/29 07:36:02;;;;;;;;;;;;;;;20.47;68.10;100370.50;5034027;28;20060;-65
2021/07/29 07:38:49;;;;;;;5.00;2.40;;;;;;;20.50;65.56;100375.53;5032303;28;19970;-66
2021/07/29 07:41:33;;;;;;;9.48;2.45;;;;;;;20.20;65.18;100360.66;5018375;28;20642;-65
2021/07/29 07:44:17;;;;;;;7.18;2.72;;;;;;;20.32;66.32;100369.88;5032508;28;20048;-64
2021/07/29 07:47:01;;;;;;;3.92;2.80;;;;;;;20.47;65.74;100381.34;5004632;28;20047;-65
2021/07/29 07:49:45;;;;;;;5.88;2.30;;;;;;;20.47;67.08;100382.19;5018507;28;20080;-65
2021/07/29 07:52:29;;;;;;;4.13;2.58;;;;;;;20.39;65.62;100384.22;5018119;28;20103;-65
2021/07/29 07:55:13;;;;;;;;;;;;;;;20.36;64.77;100371.09;5018558;28;20052;-65
2021/07/29 07:57:57;;;;;;;5.73;2.40;;;;;;;20.40;63.40;100381.31;5018409;28;19971;-64
2021/07/29 08:00:41;;;;;;;4.97;2.85;;;;;;;20.35;64.94;100366.72;5018311;28;20275;-65
2021/07/29 08:03:25;;;;;;;3.25;2.00;;;;;;;20.40;63.73;100370.50;5018377;28;20102;-65
2021/07/29 08:06:09;;;;;;;4.90;2.53;;;;;;;20.46;64.35;100371.56;5018278;28;20052;-65
2021/07/29 08:08:53;;;;;;;6.65;2.22;;;;;;;20.50;62.22;100362.81;5018039;28;20059;-65
2021/07/29 08:11:37;;;;;;;2.63;2.08;;;;;;;20.58;62.84;100364.47;5018075;28;20051;-64
2021/07/29 08:14:21;;;;;;;5.15;2.00;;;;;;;20.56;63.50;100366.56;5018262;28;20053;-64
2021/07/29 08:17:05;;;;;;;7.72;2.10;;;;;;;20.53;61.45;100367.00;5018471;28;20053;-64
2021/07/29 08:19:49;;;;;;;5.53;3.00;;;;;;;20.53;62.53;100353.44;5031996;28;20060;-65
2021/07/29 08:22:33;;;;;;;2.92;2.25;;;;;;;20.65;62.17;100354.50;5017856;28;20175;-65
2021/07/29 08:25:19;;;;;;;4.85;2.20;;;;;;;20.76;61.35;100370.16;5018199;28;20132;-65
2021/07/29 08:28:04;;;;;;;2.78;2.22;;;;;;;20.78;61.57;100368.06;5032166;28;20200;-64
2021/07/29 08:30:48;;;;;;;7.63;3.17;;;;;;;20.75;61.36;100365.78;5018301;28;20079;-65
2021/07/29 08:33:31;;;;;;;3.15;2.67;;;;;;;20.93;62.38;100366.03;5018047;28;20052;-66
2021/07/29 08:36:18;;;;;;;7.95;2.60;;;;;;;21.03;61.45;100358.31;5018013;28;20049;-65
2021/07/29 08:39:02;;;;;;;5.25;2.83;;;;;;;21.30;60.92;100358.91;5017798;28;20052;-65
2021/07/29 08:41:46;;;;;;;3.70;2.08;;;;;;;21.51;59.16;100365.97;5018048;28;20414;-65
2021/07/29 08:44:30;;;;;;;3.10;2.22;;;;;;;21.67;58.11;100360.13;5018094;28;20465;-65
2021/07/29 08:47:23;;;;;;;4.13;2.70;;;;;;;21.89;58.13;100369.66;5017933;28;20051;-65
2021/07/29 08:50:08;;;;;;;3.63;2.33;;;;;;;21.75;56.58;100377.00;5018260;28;20044;-64
2021/07/29 08:52:52;;;;;;;5.72;2.63;;;;;;;21.70;57.04;100370.53;5018744;28;20056;-64
2021/07/29 08:55:36;;;;;;;4.45;2.20;;;;;;;21.68;55.60;100361.78;5021592;28;20087;-64
2021/07/29 08:58:21;;;;;;;4.18;2.47;;;;;;;21.81;56.59;100356.31;5021518;28;20068;-64
2021/07/29 09:01:08;;;;;;;3.97;2.65;;;;;;;22.01;56.80;100374.19;5035795;28;20087;-65
2021/07/29 09:04:08;;;;;;;5.82;2.80;;;;;;;22.03;56.93;100358.53;5021395;28;20136;-64
2021/07/29 09:06:56;;;;;;;8.90;3.05;;;;;;;21.95;56.30;100369.63;5009036;28;20151;-65
2021/07/29 09:09:52;;;;;;;4.53;2.55;;;;;;;22.12;57.25;100365.34;5038232;28;20052;-64
2021/07/29 09:12:36;;;;;;;4.32;2.38;;;;;;;22.05;57.89;100370.00;5024230;28;20048;-64
2021/07/29 09:15:21;;;;;;;5.22;2.50;;;;;;;22.04;55.41;100371.06;5022848;28;20099;-64
2021/07/29 09:18:05;;;;;;;3.65;2.53;;;;;;;21.99;51.90;100378.19;5022754;28;20052;-64
2021/07/29 09:21:10;;;;;;;3.60;2.45;;;;;;;21.99;53.53;100376.28;5035847;28;20136;-64
2021/07/29 09:24:10;;;;;;;2.70;2.40;;;;;;;21.84;51.78;100373.00;5021137;28;20122;-64
2021/07/29 09:26:58;;;;;;;3.35;2.63;;;;;;;21.84;53.29;100366.72;5020948;28;20458;-64
2021/07/29 09:29:42;;;;;;;4.45;2.60;;;;;;;22.02;54.58;100359.56;5020744;28;20414;-64
2021/07/29 09:32:26;;;;;;;5.05;2.50;;;;;;;22.37;55.06;100358.13;5020858;28;20526;-64
2021/07/29 09:35:10;;;;;;;4.25;2.30;;;;;;;22.24;51.83;100363.66;5021121;28;20056;-64
2021/07/29 09:37:54;;;;;;;;;;;;;;;22.23;52.14;100356.56;5021202;28;20094;-64
2021/07/29 09:40:54;;;;;;;4.00;2.57;;;;;;;22.84;52.83;100360.34;5020521;28;20439;-65
2021/07/29 09:43:38;;;;;;;6.85;2.90;;;;;;;23.20;51.54;100346.06;5020480;28;20099;-64
2021/07/29 09:46:24;;;;;;;3.47;2.60;;;;;;;23.72;50.99;100353.69;5020784;28;20048;-65
2021/07/29 09:49:08;;;;;;;3.28;2.45;;;;;;;24.15;48.76;100349.81;5020727;28;20509;-65
2021/07/29 09:51:51;;;;;;;;;;;;;;;24.21;47.41;100343.47;5020871;28;20052;-66
2021/07/29 09:54:40;;;;;;;3.00;2.50;;;;;;;24.42;46.95;100351.94;5020364;28;19936;-66
2021/07/29 09:57:24;;;;;;;3.00;2.30;;;;;;;24.54;47.02;100361.06;5020621;28;20080;-66
2021/07/29 10:00:09;;;;;;;9.88;2.75;;;;;;;24.58;46.40;100353.22;5020453;28;20076;-65
2021/07/29 10:02:54;;;;;;;3.85;2.33;;;;;;;24.88;45.50;100343.94;5020075;28;20107;-66
2021/07/29 10:05:48;;;;;;;3.75;2.50;;;;;;;24.54;45.76;100349.31;5019876;28;20052;-65
2021/07/29 10:08:37;;;;;;;6.13;2.50;;;;;;;24.62;46.58;100340.81;5035461;28;20052;-65
2021/07/29 10:11:23;;;;;;;3.05;2.45;;;;;;;25.00;44.52;100338.50;5019879;28;20052;-66
2021/07/29 10:14:10;;;;;;;4.03;2.42;;;;;;;24.81;46.17;100339.66;5033915;28;20120;-65
2021/07/29 10:16:54;;;;;;;3.05;2.50;;;;;;;25.33;45.79;100333.34;5034066;28;20056;-65
2021/07/29 10:20:14;;;;;;;3.22;2.60;;;;;;;25.62;43.17;100332.38;5020097;28;20092;-65
2021/07/29 10:23:13;;;;;;;3.05;2.70;;;;;;;26.24;41.89;100328.78;5034776;28;20064;-66
2021/07/29 10:26:02;;;;;;;6.30;2.95;;;;;;;26.77;41.49;100329.25;5033608;28;20144;-66
2021/07/29 10:28:46;;;;;;;4.13;2.47;;;;;;;28.17;38.16;100333.00;5034080;28;20051;-66
2021/07/29 10:31:48;;;;;;;3.63;2.53;;;;;;;28.97;36.90;100325.63;5033726;28;20091;-65
2021/07/29 10:34:33;;;;;;;4.53;2.42;;;;;;;29.52;35.14;100323.31;5019546;28;20045;-66
2021/07/29 10:37:40;;;;;;;4.53;2.50;;;;;;;28.64;35.21;100331.34;5019376;28;20130;-65
2021/07/29 10:40:36;;;;;;;3.85;2.60;;;;;;;29.24;35.76;100326.38;5034533;28;20171;-65
2021/07/29 10:43:23;;;;;;;3.53;2.78;;;;;;;28.14;36.35;100329.94;5033494;28;20160;-65
2021/07/29 10:46:09;;;;;;;5.20;3.05;;;;;;;28.84;36.44;100328.78;5033521;28;20095;-65
2021/07/29 10:52:09;;;;;;;3.33;2.83;;;;;;;30.37;33.53;100329.19;5033453;28;20055;-65
2021/07/29 10:54:54;;;;;;;6.70;2.78;;;;;;;30.05;33.92;100323.06;5019744;28;20056;-65
2021/07/29 10:57:38;;;;;;;5.38;2.90;;;;;;;29.59;33.70;100328.56;5019327;28;20064;-66
2021/07/29 11:00:22;;;;;;;4.18;2.38;;;;;;;30.55;33.21;100301.19;5019284;28;20568;-66
2021/07/29 11:03:19;;;;;;;2.72;2.45;;;;;;;31.84;31.74;100308.53;5032878;28;20525;-66
2021/07/29 11:06:09;;;;;;;3.50;2.42;;;;;;;30.72;31.71;100310.03;5019333;28;20556;-65
2021/07/29 11:08:53;;;;;;;4.13;2.72;;;;;;;28.84;35.31;100315.06;5019780;28;20036;-66
2021/07/29 11:11:38;;;;;;;5.32;2.55;;;;;;;28.22;36.53;100305.63;5018670;28;20072;-65
2021/07/29 11:14:33;;;;;;;3.28;2.33;;;;;;;29.13;34.82;100305.44;5032945;28;20044;-65
2021/07/29 11:17:21;;;;;;;3.78;2.63;;;;;;;29.39;33.84;100301.78;5018798;28;20129;-64
2021/07/29 11:20:06;;;;;;;4.18;2.42;;;;;;;29.33;33.31;100300.09;5018961;28;20136;-65
2021/07/29 11:22:50;;;;;;;5.93;2.85;;;;;;;28.95;35.06;100303.09;5018581;28;20056;-65
2021/07/29 11:25:34;;;;;;;;;;;;;;;28.02;36.00;100299.94;5019131;28;20067;-65
2021/07/29 11:28:18;;;;;;;;;;;;;;;27.41;39.15;100319.34;5019519;28;19920;-65
2021/07/29 11:31:02;;;;;;;;;;;;;;;26.11;39.71;100315.38;5019121;28;19963;-65
2021/07/29 11:33:49;;;;;;;;;;;;;;;27.00;38.64;100300.63;5019056;28;19919;-65
2021/07/29 11:36:33;;;;;;;;;;;;;;;28.15;36.52;100305.00;5034038;28;19920;-64
2021/07/29 11:39:17;;;;;;;;;;;;;;;27.78;37.61;100300.44;5018832;28;19967;-65
2021/07/29 11:42:01;;;;;;;;;;;;;;;27.84;35.98;100302.19;5018987;28;19920;-64
2021/07/29 11:44:47;;;;;;;;;;;;;;;28.12;36.53;100308.25;5019028;28;20387;-65
2021/07/29 11:47:39;;;;;;;;;;;;;;;28.48;36.31;100288.41;5032974;28;19920;-65
2021/07/29 11:50:39;;;;;;;;;;;;;;;28.80;35.66;100297.47;5019099;28;20491;-64
2021/07/29 11:53:35;;;;;;;;;;;;;;;27.21;37.12;100280.72;5018452;28;19960;-65
2021/07/29 11:56:19;;;;;;;;;;;;;;;26.05;40.34;100305.44;5032534;28;19967;-64
2021/07/29 11:59:05;;;;;;;;;;;;;;;26.36;39.96;100296.75;5018436;28;19940;-64
2021/07/29 12:01:49;;;;;;;;;;;;;;;27.06;37.04;100282.38;5019369;28;19924;-65
2021/07/29 12:04:37;;;;;;;;;;;;;;;28.10;36.44;100273.97;5032821;28;19970;-65
2021/07/29 12:07:22;;;;;;;;;;;;;;;29.35;35.83;100272.38;5018690;28;20325;-66
2021/07/29 12:10:06;;;;;;;;;;;;;;;29.51;32.96;100265.88;5018789;28;19963;-66
2021/07/29 12:12:49;;;;;;;;;;;;;;;31.01;31.54;100267.06;5032667;28;20031;-66
2021/07/29 12:15:33;;;;;;;;;;;;;;;31.04;30.79;100269.28;5018697;28;19919;-66
2021/07/29 12:18:21;;;;;;;;;;;;;;;30.00;31.36;100281.78;5018646;28;19971;-66
2021/07/29 12:21:08;;;;;;;;;;;;;;;28.79;33.75;100270.28;5032630;28;19920;-66
2021/07/29 12:23:52;;;;;;;;;;;;;;;28.92;34.26;100261.63;5018912;28;19959;-66
2021/07/29 12:26:36;;;;;;;;;;;;;;;29.10;33.34;100259.31;5018353;28;19975;-66
2021/07/29 12:29:39;;;;;;;;;;;;;;;29.53;32.88;100259.03;5022228;28;19967;-66
2021/07/29 12:32:22;;;;;;;;;;;;;;;30.03;31.67;100253.72;5036449;28;20023;-66
2021/07/29 12:35:06;;;;;;;;;;;;;;;30.33;32.26;100242.81;5037470;28;19944;-66
2021/07/29 12:37:57;;;;;;;;;;;;;;;31.45;29.88;100252.41;5022501;28;19924;-66
2021/07/29 12:40:41;;;;;;;;;;;;;;;31.84;29.92;100241.53;5022675;28;20011;-66
2021/07/29 12:43:25;;;;;;;;;;;;;;;31.96;29.38;100247.53;5022043;28;20022;-66
2021/07/29 12:46:10;;;;;;;;;;;;;;;32.02;29.71;100238.13;5022294;28;20366;-66
2021/07/29 12:48:54;;;;;;;;;;;;;;;32.07;28.64;100240.88;5022439;28;19967;-66
2021/07/29 12:51:46;;;;;;;;;;;;;;;31.44;31.19;100239.72;5021827;28;19995;-66
2021/07/29 12:54:30;;;;;;;;;;;;;;;31.25;31.46;100233.19;5022262;28;19920;-66
2021/07/29 12:57:14;;;;;;;;;;;;;;;32.16;28.88;100236.41;5035627;28;19920;-66
2021/07/29 12:59:58;;;;;;;;;;;;;;;32.42;29.25;100229.59;5021711;28;19967;-66
2021/07/29 13:02:42;;;;;;;;;;;;;;;32.31;28.09;100223.34;5021530;28;20289;-66